Time;durP1;ratioP1;P1;durP2;ratioP2;P2;SDS_P1;SDS_P2;PMS_P1;PMS_P2;Temp;Humidity;BMP_temperature;BMP_pressure;BME280_temperature;BME280_humidity;BME280_pressure;Samples;Min_cycle;Max_cycle;Signal;HPM_P1;HPM_P2
2022/01/21 00:01:08;;;;;;;14.90;2.05;;;;;;;-141.50;100.00;63355.56;5027422;28;20050;-86
2022/01/21 00:03:36;;;;;;;10.13;1.60;;;;;;;-141.50;100.00;63355.56;5000149;28;20149;-86
2022/01/21 00:06:06;;;;;;;15.25;1.60;;;;;;;-141.50;100.00;63355.56;5016984;28;20053;-84
2022/01/21 00:08:38;;;;;;;15.02;1.80;;;;;;;-141.50;100.00;63355.56;4997631;28;20119;-84
2022/01/21 00:11:07;;;;;;;16.77;1.75;;;;;;;-141.50;100.00;63355.56;5015524;28;20554;-85
2022/01/21 00:13:34;;;;;;;19.50;1.73;;;;;;;-141.50;100.00;63355.56;4997214;28;20054;-83
2022/01/21 00:16:05;;;;;;;11.50;1.60;;;;;;;-141.50;100.00;63355.56;5014424;28;20109;-83
2022/01/21 00:18:34;;;;;;;11.75;1.33;;;;;;;-141.50;100.00;63355.56;5012288;28;20104;-85
2022/01/21 00:32:05;;;;;;;16.50;2.03;;;;;;;-141.50;100.00;63355.56;5014466;28;20192;-86
2022/01/21 00:34:32;;;;;;;10.45;1.60;;;;;;;-141.50;100.00;63355.56;5012217;28;20582;-86
2022/01/21 00:36:59;;;;;;;6.88;1.38;;;;;;;-141.50;100.00;63355.56;5013281;28;20053;-86
2022/01/21 00:39:29;;;;;;;11.63;1.52;;;;;;;-141.50;100.00;63355.56;5011746;28;20494;-85
2022/01/21 00:44:26;;;;;;;8.80;1.45;;;;;;;-141.50;100.00;63355.56;5012599;28;20104;-86
2022/01/21 00:46:53;;;;;;;14.13;1.35;;;;;;;-141.50;100.00;63355.56;5012893;28;20112;-86
2022/01/21 00:49:20;;;;;;;11.30;1.52;;;;;;;-141.50;100.00;63355.56;5012018;28;20053;-87
2022/01/21 00:51:47;;;;;;;15.48;1.73;;;;;;;-141.50;100.00;63355.56;4995371;28;20049;-86
2022/01/21 00:54:14;;;;;;;10.52;1.75;;;;;;;-141.50;100.00;63355.56;5012574;28;20049;-86
2022/01/21 00:56:41;;;;;;;19.95;1.70;;;;;;;-141.50;100.00;63355.56;5007286;28;20221;-87
2022/01/21 00:59:07;;;;;;;10.93;1.58;;;;;;;-141.50;100.00;63355.56;5016500;28;20079;-85
2022/01/21 01:01:34;;;;;;;13.60;1.67;;;;;;;-141.50;100.00;63355.56;5014888;28;20465;-86
2022/01/21 01:04:02;;;;;;;9.57;1.65;;;;;;;-141.50;100.00;63355.56;5011753;28;20050;-87
2022/01/21 01:06:28;;;;;;;9.90;1.92;;;;;;;-141.50;100.00;63355.56;4995267;28;20100;-84
2022/01/21 01:08:55;;;;;;;15.02;1.70;;;;;;;-141.50;100.00;63355.56;5012474;28;20049;-85
2022/01/21 01:22:09;;;;;;;10.57;1.85;;;;;;;-141.50;100.00;63355.56;5012935;28;20103;-83
2022/01/21 01:29:58;;;;;;;11.27;1.88;;;;;;;-141.50;100.00;63355.56;5012154;28;20050;-85
2022/01/21 01:32:27;;;;;;;18.75;1.73;;;;;;;-141.50;100.00;63355.56;5012631;28;20084;-84
2022/01/21 01:34:54;;;;;;;9.63;1.45;;;;;;;-141.50;100.00;63355.56;4995294;28;20556;-84
2022/01/21 01:37:44;;;;;;;13.55;1.35;;;;;;;-141.50;100.00;63355.56;5012529;28;20050;-84
2022/01/21 01:50:58;;;;;;;12.25;1.52;;;;;;;-141.50;100.00;63355.56;5016247;28;20042;-87
2022/01/21 01:53:29;;;;;;;13.52;1.15;;;;;;;-141.50;100.00;63355.56;4999965;28;20112;-87
2022/01/21 01:55:57;;;;;;;12.85;1.40;;;;;;;-141.50;100.00;63355.56;5001817;28;20491;-86
2022/01/21 01:58:24;;;;;;;8.98;1.27;;;;;;;-141.50;100.00;63355.56;5001974;28;20241;-88
2022/01/21 02:00:50;;;;;;;15.88;1.77;;;;;;;-141.50;100.00;63355.56;5030333;28;20054;-86
2022/01/21 02:03:17;;;;;;;10.77;1.55;;;;;;;-141.50;100.00;63355.56;5035108;28;20049;-87
2022/01/21 02:05:44;;;;;;;22.10;2.00;;;;;;;-141.50;100.00;63355.56;5030679;28;20050;-86
2022/01/21 02:08:11;;;;;;;8.10;1.23;;;;;;;-141.50;100.00;63355.56;5010350;28;20038;-87
2022/01/21 02:10:43;;;;;;;7.82;1.15;;;;;;;-141.50;100.00;63355.56;5000937;28;20073;-87
2022/01/21 02:13:22;;;;;;;6.45;1.33;;;;;;;-141.50;100.00;63355.56;5019059;28;20061;-86
2022/01/21 02:16:17;;;;;;;10.50;1.50;;;;;;;-141.50;100.00;63355.56;5002127;28;20050;-87
2022/01/21 02:24:05;;;;;;;9.95;1.42;;;;;;;-141.50;100.00;63355.56;5018942;28;20058;-84
2022/01/21 02:26:32;;;;;;;10.02;1.70;;;;;;;-141.50;100.00;63355.56;5017365;28;20054;-86
2022/01/21 02:29:01;;;;;;;12.90;1.10;;;;;;;-141.50;100.00;63355.56;5016714;28;20045;-85
2022/01/21 02:31:28;;;;;;;9.30;1.63;;;;;;;-141.50;100.00;63355.56;5017407;28;20045;-86
2022/01/21 02:33:56;;;;;;;10.15;1.20;;;;;;;-141.50;100.00;63355.56;5007584;28;20069;-87
2022/01/21 02:36:23;;;;;;;14.68;1.50;;;;;;;-141.50;100.00;63355.56;5007998;28;20171;-85
2022/01/21 02:38:50;;;;;;;11.80;1.17;;;;;;;-141.50;100.00;63355.56;5006375;28;20096;-85
2022/01/21 02:41:16;;;;;;;13.77;1.25;;;;;;;-141.50;100.00;63355.56;4998236;28;20054;-86
2022/01/21 02:43:43;;;;;;;12.02;1.63;;;;;;;-141.50;100.00;63355.56;4996312;28;20318;-86
2022/01/21 02:46:10;;;;;;;8.13;1.48;;;;;;;-141.50;100.00;63355.56;4998299;28;20077;-87
2022/01/21 02:48:38;;;;;;;9.95;1.35;;;;;;;-141.50;100.00;63355.56;4997051;28;20049;-86
2022/01/21 02:51:07;;;;;;;12.68;1.35;;;;;;;-141.50;100.00;63355.56;4997293;28;20476;-86
2022/01/21 02:54:03;;;;;;;14.20;1.58;;;;;;;-141.50;100.00;63355.56;4998085;28;20408;-87
2022/01/21 02:56:27;;;;;;;11.38;1.17;;;;;;;-141.50;100.00;63355.56;5015424;28;20049;-87
2022/01/21 02:58:54;;;;;;;11.00;1.00;;;;;;;-141.50;100.00;63355.56;4996308;28;20529;-87
2022/01/21 03:01:21;;;;;;;6.18;1.05;;;;;;;-141.50;100.00;63355.56;5012897;28;20112;-88
2022/01/21 03:03:53;;;;;;;11.05;1.45;;;;;;;-141.50;100.00;63355.56;4996864;28;20076;-87
2022/01/21 03:06:23;;;;;;;12.95;1.58;;;;;;;-141.50;100.00;63355.56;4997890;28;20042;-87
2022/01/21 03:08:52;;;;;;;10.02;1.08;;;;;;;-141.50;100.00;63355.56;4997421;28;20050;-86
2022/01/21 03:11:22;;;;;;;7.90;1.10;;;;;;;-141.50;100.00;63355.56;4996790;28;20065;-87
2022/01/21 03:13:49;;;;;;;17.23;1.25;;;;;;;-141.50;100.00;63355.56;5012005;28;20053;-87
2022/01/21 03:16:16;;;;;;;11.55;1.17;;;;;;;-141.50;100.00;63355.56;5002200;28;20289;-88
2022/01/21 03:18:43;;;;;;;14.35;1.45;;;;;;;-141.50;100.00;63355.56;5031769;28;20041;-90
2022/01/21 03:21:15;;;;;;;10.30;1.10;;;;;;;-141.50;100.00;63355.56;5012816;28;20107;-87
2022/01/21 03:23:46;;;;;;;14.70;1.20;;;;;;;-141.50;100.00;63355.56;5015583;28;20076;-88
2022/01/21 03:26:18;;;;;;;11.32;1.48;;;;;;;-141.50;100.00;63355.56;4997726;28;20314;-88
2022/01/21 03:28:49;;;;;;;12.15;1.70;;;;;;;-141.50;100.00;63355.56;4997262;28;20059;-88
2022/01/21 03:31:16;;;;;;;11.23;1.25;;;;;;;-141.50;100.00;63355.56;4998538;28;20045;-87
2022/01/21 03:33:44;;;;;;;11.70;1.67;;;;;;;-141.50;100.00;63355.56;5001708;28;20049;-88
2022/01/21 03:36:12;;;;;;;11.65;1.25;;;;;;;-141.50;100.00;63355.56;5000512;28;20064;-90
2022/01/21 03:39:00;;;;;;;17.90;1.38;;;;;;;-141.50;100.00;63355.56;5000378;28;20124;-88
2022/01/21 03:41:30;;;;;;;11.93;1.08;;;;;;;-141.50;100.00;63355.56;5016102;28;20050;-88
2022/01/21 03:43:57;;;;;;;9.55;1.20;;;;;;;-141.50;100.00;63355.56;5013330;28;20081;-86
2022/01/21 03:46:24;;;;;;;8.70;1.27;;;;;;;-141.50;100.00;63355.56;5020259;28;20151;-88
2022/01/21 03:48:51;;;;;;;13.95;1.52;;;;;;;-141.50;100.00;63355.56;4999550;28;20077;-88
2022/01/21 03:51:19;;;;;;;9.20;1.00;;;;;;;-141.50;100.00;63355.56;4998643;28;20057;-88
2022/01/21 03:53:47;;;;;;;8.65;1.48;;;;;;;-141.50;100.00;63355.56;4998334;28;20062;-86
2022/01/21 03:56:15;;;;;;;10.13;1.48;;;;;;;-141.50;100.00;63355.56;5014832;28;20466;-88
2022/01/21 03:58:43;;;;;;;13.98;1.33;;;;;;;-141.50;100.00;63355.56;5013740;28;20495;-89
2022/01/21 04:01:09;;;;;;;10.18;1.40;;;;;;;-141.50;100.00;63355.56;5015892;28;20495;-88
2022/01/21 04:03:36;;;;;;;11.82;1.13;;;;;;;-141.50;100.00;63355.56;4998374;28;20060;-88
2022/01/21 04:06:03;;;;;;;15.18;1.63;;;;;;;-141.50;100.00;63355.56;5014703;28;20076;-88
2022/01/21 04:08:30;;;;;;;11.35;1.85;;;;;;;-141.50;100.00;63355.56;5015041;28;20511;-90
2022/01/21 04:10:57;;;;;;;6.68;1.10;;;;;;;-141.50;100.00;63355.56;5012755;28;20197;-89
2022/01/21 04:13:26;;;;;;;7.70;1.13;;;;;;;-141.50;100.00;63355.56;4995726;28;20077;-89
2022/01/21 04:15:56;;;;;;;7.75;0.90;;;;;;;-141.50;100.00;63355.56;5014338;28;20058;-87
2022/01/21 04:18:24;;;;;;;7.07;1.88;;;;;;;-141.50;100.00;63355.56;4997215;28;20056;-88
2022/01/21 04:20:52;;;;;;;10.20;1.27;;;;;;;-141.50;100.00;63355.56;4998345;28;20065;-87
2022/01/21 04:23:23;;;;;;;7.95;1.63;;;;;;;-141.50;100.00;63355.56;5013740;28;20054;-88
2022/01/21 04:25:52;;;;;;;10.52;1.20;;;;;;;-141.50;100.00;63355.56;4998072;28;20057;-89
2022/01/21 04:28:19;;;;;;;8.00;1.38;;;;;;;-141.50;100.00;63355.56;4996077;28;20038;-88
2022/01/21 04:30:48;;;;;;;9.65;1.27;;;;;;;-141.50;100.00;63355.56;4997784;28;20053;-89
2022/01/21 04:33:15;;;;;;;15.88;1.27;;;;;;;-141.50;100.00;63355.56;5013161;28;20056;-88
2022/01/21 04:35:42;;;;;;;11.75;1.52;;;;;;;-141.50;100.00;63355.56;4998059;28;20445;-88
2022/01/21 04:38:13;;;;;;;10.10;1.52;;;;;;;-141.50;100.00;63355.56;4997934;28;20060;-89
2022/01/21 04:40:48;;;;;;;12.02;1.27;;;;;;;-141.50;100.00;63355.56;4998067;28;20134;-88
2022/01/21 04:48:47;;;;;;;11.20;1.30;;;;;;;-141.50;100.00;63355.56;5014813;28;20125;-87
2022/01/21 04:51:25;;;;;;;8.20;1.38;;;;;;;-141.50;100.00;63355.56;4996155;28;20058;-88
2022/01/21 04:53:53;;;;;;;11.48;1.20;;;;;;;-141.50;100.00;63355.56;4997395;28;20447;-89
2022/01/21 04:56:22;;;;;;;12.50;1.42;;;;;;;-141.50;100.00;63355.56;4995433;28;20038;-88
2022/01/21 04:58:49;;;;;;;6.93;1.42;;;;;;;-141.50;100.00;63355.56;4993077;28;20383;-89
2022/01/21 05:01:16;;;;;;;10.68;1.45;;;;;;;-141.50;100.00;63355.56;4994839;28;20042;-90
2022/01/21 05:04:00;;;;;;;10.35;1.30;;;;;;;-141.50;100.00;63355.56;5011105;28;20061;-90
2022/01/21 05:06:27;;;;;;;12.13;1.45;;;;;;;-141.50;100.00;63355.56;5004675;28;20446;-89
2022/01/21 05:09:02;;;;;;;10.32;1.40;;;;;;;-141.50;100.00;63355.56;5008247;28;20481;-90
2022/01/21 05:11:38;;;;;;;11.77;1.30;;;;;;;-141.50;100.00;63355.56;5023588;28;20042;-88
2022/01/21 05:14:17;;;;;;;9.50;1.20;;;;;;;-141.50;100.00;63355.56;5004540;28;20060;-88
2022/01/21 05:16:47;;;;;;;11.50;1.65;;;;;;;-141.50;100.00;63355.56;5006117;28;20046;-89
2022/01/21 05:19:19;;;;;;;10.18;1.40;;;;;;;-141.50;100.00;63355.56;5005002;28;20045;-89
2022/01/21 05:21:58;;;;;;;11.45;1.48;;;;;;;-141.50;100.00;63355.56;5002174;28;20060;-90
2022/01/21 05:24:40;;;;;;;7.82;1.20;;;;;;;-141.50;100.00;63355.56;5022726;28;20050;-90
2022/01/21 05:27:17;;;;;;;13.48;1.40;;;;;;;-141.50;100.00;63355.56;5022243;28;20065;-88
2022/01/21 05:29:44;;;;;;;12.43;1.48;;;;;;;-141.50;100.00;63355.56;5005457;28;20041;-87
2022/01/21 05:32:24;;;;;;;10.82;1.20;;;;;;;-141.50;100.00;63355.56;5009047;28;20129;-88
2022/01/21 05:35:05;;;;;;;12.05;1.27;;;;;;;-141.50;100.00;63355.56;5008628;28;20053;-88
2022/01/21 05:37:35;;;;;;;16.10;1.88;;;;;;;-141.50;100.00;63355.56;5033682;28;20034;-87
2022/01/21 05:40:19;;;;;;;9.80;1.52;;;;;;;-141.50;100.00;63355.56;5022730;28;20026;-87
2022/01/21 05:42:51;;;;;;;13.27;1.40;;;;;;;-141.50;100.00;63355.56;5005608;28;20705;-90
2022/01/21 05:48:37;;;;;;;15.10;1.40;;;;;;;-141.50;100.00;63355.56;5036766;28;20029;-90
2022/01/21 05:51:29;;;;;;;12.75;1.33;;;;;;;-141.50;100.00;63355.56;5031917;28;20094;-91
2022/01/21 05:54:25;;;;;;;9.77;1.50;;;;;;;-141.50;100.00;63355.56;5025435;28;20048;-86
2022/01/21 05:57:15;;;;;;;8.10;1.30;;;;;;;-141.50;100.00;63355.56;5022725;28;20423;-88
2022/01/21 05:59:58;;;;;;;16.38;2.03;;;;;;;-141.50;100.00;63355.56;4948969;28;20166;-85
2022/01/21 06:02:25;;;;;;;13.00;1.63;;;;;;;-141.50;100.00;63355.56;4942433;29;20063;-85
2022/01/21 06:04:59;;;;;;;16.95;2.28;;;;;;;-141.50;100.00;63355.56;4948865;29;20150;-84
2022/01/21 06:07:29;;;;;;;13.25;1.55;;;;;;;-141.50;100.00;63355.56;4958546;28;20054;-86
2022/01/21 06:11:03;;;;;;;12.38;1.55;;;;;;;-141.50;100.00;63355.56;4956820;28;20062;-86
2022/01/21 06:13:49;;;;;;;11.90;1.42;;;;;;;-141.50;100.00;63355.56;4954230;28;20161;-87
2022/01/21 06:16:50;;;;;;;11.88;1.67;;;;;;;-141.50;100.00;63355.56;4957959;28;20431;-88
2022/01/21 06:19:28;;;;;;;10.82;1.98;;;;;;;-141.50;100.00;63355.56;4954561;29;20655;-85
2022/01/21 06:22:17;;;;;;;15.88;2.00;;;;;;;-141.50;100.00;63355.56;4971042;28;20399;-90
2022/01/21 06:25:08;;;;;;;18.33;1.92;;;;;;;-141.50;100.00;63355.56;4959540;28;20099;-88
2022/01/21 06:27:48;;;;;;;9.00;1.55;;;;;;;-141.50;100.00;63355.56;4933570;29;20158;-86
2022/01/21 06:30:31;;;;;;;17.65;1.90;;;;;;;-141.50;100.00;63355.56;4930144;29;20059;-86
2022/01/21 06:33:05;;;;;;;16.05;2.10;;;;;;;-141.50;100.00;63355.56;4928067;29;20059;-87
2022/01/21 06:35:32;;;;;;;19.80;2.40;;;;;;;-141.50;100.00;63355.56;4930583;29;20059;-87
2022/01/21 06:38:03;;;;;;;18.77;2.70;;;;;;;-141.50;100.00;63355.56;4965213;28;20058;-87
2022/01/21 06:40:30;;;;;;;19.08;2.25;;;;;;;-141.50;100.00;63355.56;4974084;28;20050;-86
2022/01/21 06:43:05;;;;;;;16.27;3.45;;;;;;;-141.50;100.00;63355.56;4991542;28;20058;-87
2022/01/21 06:45:34;;;;;;;15.60;2.08;;;;;;;-141.50;100.00;63355.56;4976989;28;20042;-86
2022/01/21 06:48:05;;;;;;;14.00;2.15;;;;;;;-141.50;100.00;63355.56;4974921;28;20124;-87
2022/01/21 06:50:45;;;;;;;17.02;2.58;;;;;;;-141.50;100.00;63355.56;4989859;28;20594;-86
2022/01/21 06:53:27;;;;;;;13.23;2.22;;;;;;;-141.50;100.00;63355.56;5002878;28;20062;-87
2022/01/21 06:55:55;;;;;;;28.00;2.90;;;;;;;-141.50;100.00;63355.56;4994327;28;20697;-89
2022/01/21 06:58:22;;;;;;;19.10;2.60;;;;;;;-141.50;100.00;63355.56;5007920;28;20423;-86
2022/01/21 07:00:48;;;;;;;19.55;2.92;;;;;;;-141.50;100.00;63355.56;4993083;28;20103;-86
2022/01/21 07:03:15;;;;;;;21.48;2.67;;;;;;;-141.50;100.00;63355.56;4995605;28;20053;-87
2022/01/21 07:05:46;;;;;;;19.48;2.45;;;;;;;-141.50;100.00;63355.56;4989061;28;20149;-87
2022/01/21 07:08:16;;;;;;;15.18;2.63;;;;;;;-141.50;100.00;63355.56;4999929;28;20522;-86
2022/01/21 07:10:44;;;;;;;21.02;2.67;;;;;;;-141.50;100.00;63355.56;5014850;28;20430;-87
2022/01/21 07:13:11;;;;;;;17.42;3.00;;;;;;;-141.50;100.00;63355.56;4994920;28;20054;-88
2022/01/21 07:15:38;;;;;;;21.90;2.50;;;;;;;-141.50;100.00;63355.56;5007073;28;20069;-87
2022/01/21 07:18:09;;;;;;;19.73;2.47;;;;;;;-141.50;100.00;63355.56;4997675;28;20414;-86
2022/01/21 07:20:36;;;;;;;23.40;3.13;;;;;;;-141.50;100.00;63355.56;5012016;28;20084;-87
2022/01/21 07:23:08;;;;;;;20.20;2.83;;;;;;;-141.50;100.00;63355.56;5013690;28;20099;-87
2022/01/21 07:25:38;;;;;;;26.50;3.03;;;;;;;-141.50;100.00;63355.56;5014892;28;20068;-87
2022/01/21 07:28:05;;;;;;;19.52;2.72;;;;;;;-141.50;100.00;63355.56;5009697;28;20064;-88
2022/01/21 07:30:32;;;;;;;21.50;3.45;;;;;;;-141.50;100.00;63355.56;4997275;28;20042;-88
2022/01/21 07:33:01;;;;;;;17.15;2.75;;;;;;;-141.50;100.00;63355.56;4996522;28;20096;-87
2022/01/21 07:35:28;;;;;;;15.18;2.75;;;;;;;-141.50;100.00;63355.56;4995216;28;20050;-86
2022/01/21 07:38:09;;;;;;;19.88;2.88;;;;;;;-141.50;100.00;63355.56;5011469;28;20056;-86
2022/01/21 07:40:36;;;;;;;18.23;3.03;;;;;;;-141.50;100.00;63355.56;4995940;28;20080;-87
2022/01/21 07:43:06;;;;;;;11.45;2.72;;;;;;;-141.50;100.00;63355.56;4995399;28;20266;-86
2022/01/21 07:45:33;;;;;;;22.15;3.08;;;;;;;-141.50;100.00;63355.56;4996219;28;20060;-87
2022/01/21 07:48:00;;;;;;;18.92;3.35;;;;;;;-141.50;100.00;63355.56;5012729;28;20081;-85
2022/01/21 07:50:34;;;;;;;21.08;3.20;;;;;;;-141.50;100.00;63355.56;5014224;28;20092;-87
2022/01/21 07:53:02;;;;;;;17.05;3.33;;;;;;;-141.50;100.00;63355.56;4995785;28;20057;-86
2022/01/21 07:55:29;;;;;;;19.52;2.72;;;;;;;-141.50;100.00;63355.56;5002599;28;20053;-85
2022/01/21 07:57:56;;;;;;;23.58;2.60;;;;;;;-141.50;100.00;63355.56;5013641;28;20100;-86
2022/01/21 08:00:23;;;;;;;22.38;2.95;;;;;;;-141.50;100.00;63355.56;4997481;28;20145;-85
2022/01/21 08:02:50;;;;;;;14.73;2.78;;;;;;;-141.50;100.00;63355.56;4995109;28;20049;-86
2022/01/21 08:05:16;;;;;;;18.02;2.75;;;;;;;-141.50;100.00;63355.56;5003167;28;20100;-87
2022/01/21 08:07:43;;;;;;;15.80;2.83;;;;;;;-141.50;100.00;63355.56;5008501;28;20049;-88
2022/01/21 08:10:15;;;;;;;22.50;2.80;;;;;;;-141.50;100.00;63355.56;5021746;28;20061;-88
2022/01/21 08:12:42;;;;;;;17.40;2.70;;;;;;;-141.50;100.00;63355.56;4997658;28;20054;-88
2022/01/21 08:15:11;;;;;;;20.80;3.15;;;;;;;-141.50;100.00;63355.56;5014402;28;20053;-87
2022/01/21 08:17:38;;;;;;;20.27;2.65;;;;;;;-141.50;100.00;63355.56;4997255;28;20093;-88
2022/01/21 08:20:05;;;;;;;16.55;2.50;;;;;;;-141.50;100.00;63355.56;4997027;28;20073;-88
2022/01/21 08:22:32;;;;;;;16.25;2.70;;;;;;;-141.50;100.00;63355.56;5013664;28;20064;-88
2022/01/21 08:25:01;;;;;;;12.65;2.33;;;;;;;-141.50;100.00;63355.56;5017949;28;20144;-87
2022/01/21 08:27:32;;;;;;;17.73;2.30;;;;;;;-141.50;100.00;63355.56;5022472;28;20088;-87
2022/01/21 08:30:04;;;;;;;20.67;2.72;;;;;;;-141.50;100.00;63355.56;5014163;28;20148;-88
2022/01/21 08:32:31;;;;;;;19.60;2.40;;;;;;;-141.50;100.00;63355.56;5016124;28;20308;-87
2022/01/21 08:34:57;;;;;;;17.00;2.53;;;;;;;-141.50;100.00;63355.56;4999306;28;20071;-86
2022/01/21 08:37:24;;;;;;;22.15;3.30;;;;;;;-141.50;100.00;63355.56;5017607;28;20136;-87
2022/01/21 08:39:54;;;;;;;11.32;2.15;;;;;;;-141.50;100.00;63355.56;5018841;28;20045;-88
2022/01/21 08:42:20;;;;;;;22.48;4.15;;;;;;;-141.50;100.00;63355.56;5035610;28;20045;-86
2022/01/21 08:44:47;;;;;;;16.92;2.92;;;;;;;-141.50;100.00;63355.56;5019578;28;20049;-85
2022/01/21 08:47:15;;;;;;;18.27;3.28;;;;;;;-141.50;100.00;63355.56;5017288;28;20073;-87
2022/01/21 08:49:44;;;;;;;20.20;2.58;;;;;;;-141.50;100.00;63355.56;5034547;28;20052;-88
2022/01/21 08:52:19;;;;;;;22.60;3.00;;;;;;;-141.50;100.00;63355.56;4997847;28;20510;-87
2022/01/21 08:54:47;;;;;;;12.13;2.45;;;;;;;-141.50;100.00;63355.56;5009064;28;20054;-87
2022/01/21 08:57:15;;;;;;;16.65;2.38;;;;;;;-141.50;100.00;63355.56;5000795;28;20057;-87
2022/01/21 08:59:42;;;;;;;14.85;2.42;;;;;;;-141.50;100.00;63355.56;4996849;28;20046;-87
2022/01/21 09:02:09;;;;;;;26.20;2.97;;;;;;;-141.50;100.00;63355.56;4980362;28;20046;-88
2022/01/21 09:04:36;;;;;;;19.52;2.50;;;;;;;-141.50;100.00;63355.56;5012596;28;20134;-88
2022/01/21 09:07:04;;;;;;;24.33;2.88;;;;;;;-141.50;100.00;63355.56;5003401;28;20064;-85
2022/01/21 09:09:30;;;;;;;17.60;2.60;;;;;;;-141.50;100.00;63355.56;5016096;28;20088;-86
2022/01/21 09:11:59;;;;;;;21.70;3.42;;;;;;;-141.50;100.00;63355.56;5021472;28;20494;-88
2022/01/21 09:14:31;;;;;;;15.63;2.75;;;;;;;-141.50;100.00;63355.56;4998956;28;20380;-86
2022/01/21 09:16:58;;;;;;;19.58;2.95;;;;;;;-141.50;100.00;63355.56;5016078;28;20061;-85
2022/01/21 09:19:25;;;;;;;17.85;2.38;;;;;;;-141.50;100.00;63355.56;5017395;28;20123;-85
2022/01/21 09:21:54;;;;;;;18.25;3.50;;;;;;;-141.50;100.00;63355.56;5002796;28;20102;-85
2022/01/21 09:24:21;;;;;;;18.60;2.65;;;;;;;-141.50;100.00;63355.56;5020477;28;20115;-85
2022/01/21 09:26:48;;;;;;;17.23;2.92;;;;;;;-141.50;100.00;63355.56;5001058;28;20050;-86
2022/01/21 09:29:16;;;;;;;23.35;2.90;;;;;;;-141.50;100.00;63355.56;5000301;28;20054;-83
2022/01/21 09:31:43;;;;;;;18.48;3.00;;;;;;;-141.50;100.00;63355.56;5022979;28;20049;-84
2022/01/21 09:34:27;;;;;;;17.95;3.33;;;;;;;-141.50;100.00;63355.56;4998101;28;20047;-86
2022/01/21 09:36:56;;;;;;;23.05;3.25;;;;;;;-141.50;100.00;63355.56;5024741;28;20038;-82
2022/01/21 09:39:24;;;;;;;24.25;2.78;;;;;;;-141.50;100.00;63355.56;5007037;28;20050;-84
2022/01/21 09:41:54;;;;;;;17.17;2.60;;;;;;;-141.50;100.00;63355.56;5020550;28;20067;-83
2022/01/21 09:44:22;;;;;;;27.33;3.42;;;;;;;-141.50;100.00;63355.56;5021020;28;20045;-86
2022/01/21 09:46:50;;;;;;;23.48;3.33;;;;;;;-141.50;100.00;63355.56;5018408;28;20061;-83
2022/01/21 09:49:26;;;;;;;;;;;;;;;;;;;;;
2022/01/21 09:51:49;;;;;;;21.63;4.03;;;;;;;-141.50;100.00;63355.56;5015723;28;20076;-85
2022/01/21 09:54:16;;;;;;;17.33;2.72;;;;;;;-141.50;100.00;63355.56;5014841;28;20108;-85
2022/01/21 09:56:45;;;;;;;17.65;2.88;;;;;;;-141.50;100.00;63355.56;5017929;28;20108;-84
2022/01/21 09:59:17;;;;;;;15.43;2.72;;;;;;;-141.50;100.00;63355.56;5005468;28;20056;-81
2022/01/21 10:01:48;;;;;;;21.90;3.03;;;;;;;-141.50;100.00;63355.56;5023175;28;20426;-85
2022/01/21 10:04:18;;;;;;;19.25;3.53;;;;;;;-141.50;100.00;63355.56;5001664;28;20268;-85
2022/01/21 10:06:46;;;;;;;23.58;3.63;;;;;;;-141.50;100.00;63355.56;5015306;28;20442;-84
2022/01/21 10:09:15;;;;;;;19.27;3.33;;;;;;;-141.50;100.00;63355.56;4998811;28;20050;-81
2022/01/21 10:11:48;;;;;;;23.08;3.63;;;;;;;-141.50;100.00;63355.56;5015126;28;20453;-84
2022/01/21 10:14:20;;;;;;;12.30;3.13;;;;;;;-141.50;100.00;63355.56;5015883;28;20407;-84
2022/01/21 10:16:48;;;;;;;16.80;3.42;;;;;;;-141.50;100.00;63355.56;5000476;28;20050;-83
2022/01/21 10:19:25;;;;;;;19.38;3.20;;;;;;;-141.50;100.00;63355.56;5018263;28;20112;-82
2022/01/21 10:21:59;;;;;;;14.52;3.53;;;;;;;-141.50;100.00;63355.56;5022234;28;20050;-82
2022/01/21 10:24:26;;;;;;;26.88;3.78;;;;;;;-141.50;100.00;63355.56;5029292;28;20438;-81
2022/01/21 10:26:55;;;;;;;12.57;3.42;;;;;;;-141.50;100.00;63355.56;5018707;28;20054;-85
2022/01/21 10:29:24;;;;;;;19.58;3.60;;;;;;;-141.50;100.00;63355.56;5005723;28;20346;-84
2022/01/21 10:32:00;;;;;;;20.55;3.45;;;;;;;-141.50;100.00;63355.56;5002068;28;20049;-85
2022/01/21 10:34:30;;;;;;;21.02;3.38;;;;;;;-141.50;100.00;63355.56;5003159;28;20050;-85
2022/01/21 10:37:04;;;;;;;16.60;2.92;;;;;;;-141.50;100.00;63355.56;5017828;28;20053;-84
2022/01/21 10:39:32;;;;;;;21.58;3.35;;;;;;;-141.50;100.00;63355.56;5045738;28;20053;-85
2022/01/21 10:42:00;;;;;;;20.75;3.00;;;;;;;-141.50;100.00;63355.56;5038072;28;20057;-84
2022/01/21 10:44:30;;;;;;;20.33;3.80;;;;;;;-141.50;100.00;63355.56;5022740;28;20060;-82
2022/01/21 10:47:04;;;;;;;18.30;3.30;;;;;;;-141.50;100.00;63355.56;5047229;28;20054;-84
2022/01/21 10:49:31;;;;;;;9.50;3.15;;;;;;;-141.50;100.00;63355.56;5026472;28;20037;-85
2022/01/21 10:51:57;;;;;;;12.77;3.67;;;;;;;-141.50;100.00;63355.56;5027535;28;20069;-84
2022/01/21 10:54:26;;;;;;;27.83;4.00;;;;;;;-141.50;100.00;63355.56;5052453;28;20057;-83
2022/01/21 10:57:16;;;;;;;20.17;3.78;;;;;;;-141.50;100.00;63355.56;5039178;28;20045;-85
2022/01/21 10:59:59;;;;;;;21.63;3.85;;;;;;;-141.50;100.00;63355.56;5023800;28;20054;-87
2022/01/21 11:02:32;;;;;;;20.60;4.38;;;;;;;-141.50;100.00;63355.56;5002785;28;20411;-83
2022/01/21 11:05:10;;;;;;;20.83;4.25;;;;;;;-141.50;100.00;63355.56;5021363;28;20060;-81
2022/01/21 11:07:52;;;;;;;27.98;4.43;;;;;;;-141.50;100.00;63355.56;5008892;28;20096;-83
2022/01/21 11:10:31;;;;;;;18.17;3.65;;;;;;;-141.50;100.00;63355.56;5040886;28;20045;-80
2022/01/21 11:12:58;;;;;;;23.35;4.75;;;;;;;-141.50;100.00;63355.56;5041095;28;20072;-83
2022/01/21 11:15:37;;;;;;;20.80;3.88;;;;;;;-141.50;100.00;63355.56;5026392;28;20041;-81
2022/01/21 11:18:04;;;;;;;15.27;3.72;;;;;;;-141.50;100.00;63355.56;5028295;28;20069;-81
2022/01/21 11:20:37;;;;;;;18.98;4.00;;;;;;;-141.50;100.00;63355.56;5027568;28;20053;-83
2022/01/21 11:23:05;;;;;;;15.75;3.65;;;;;;;-141.50;100.00;63355.56;5025951;28;20058;-81
2022/01/21 11:25:48;;;;;;;20.38;3.90;;;;;;;-141.50;100.00;63355.56;5024548;28;20080;-82
2022/01/21 11:28:26;;;;;;;23.85;4.43;;;;;;;-141.50;100.00;63355.56;5004427;28;20064;-82
2022/01/21 11:30:54;;;;;;;19.23;3.55;;;;;;;-141.50;100.00;63355.56;5016541;28;20112;-83
2022/01/21 11:33:22;;;;;;;22.33;3.90;;;;;;;-141.50;100.00;63355.56;5015311;28;20061;-82
2022/01/21 11:35:51;;;;;;;19.20;3.92;;;;;;;-141.50;100.00;63355.56;5002628;28;20046;-82
2022/01/21 11:38:22;;;;;;;14.73;2.53;;;;;;;-141.50;100.00;63355.56;5035890;28;20453;-82
2022/01/21 11:40:50;;;;;;;11.05;2.70;;;;;;;-141.50;100.00;63355.56;5018605;28;20060;-86
2022/01/21 11:43:18;;;;;;;19.50;3.80;;;;;;;-141.50;100.00;63355.56;5016942;28;20128;-80
2022/01/21 11:51:32;;;;;;;16.77;2.58;;;;;;;-141.50;100.00;63355.56;5035064;28;20045;-83
2022/01/21 11:54:01;;;;;;;14.10;2.45;;;;;;;-141.50;100.00;63355.56;5035545;28;20170;-82
2022/01/21 11:56:34;;;;;;;14.48;2.70;;;;;;;-141.50;100.00;63355.56;5016664;28;20050;-82
2022/01/21 11:59:19;;;;;;;13.68;3.15;;;;;;;-141.50;100.00;63355.56;5016007;28;20298;-83
2022/01/21 12:01:48;;;;;;;15.95;2.30;;;;;;;-141.50;100.00;63355.56;4981857;28;20050;-82
2022/01/21 12:04:40;;;;;;;15.07;2.65;;;;;;;-141.50;100.00;63355.56;4988176;28;20060;-83
2022/01/21 12:07:44;;;;;;;14.25;2.60;;;;;;;-141.50;100.00;63355.56;5033702;28;20132;-81
2022/01/21 12:10:18;;;;;;;12.50;2.47;;;;;;;-141.50;100.00;63355.56;5038642;28;20087;-84
2022/01/21 12:12:45;;;;;;;14.60;2.10;;;;;;;-141.50;100.00;63355.56;5029234;28;20109;-81
2022/01/21 12:15:51;;;;;;;8.98;1.83;;;;;;;-141.50;100.00;63355.56;5011385;28;20050;-83
2022/01/21 12:18:54;;;;;;;10.10;1.77;;;;;;;-141.50;100.00;63355.56;5012746;28;20115;-82
2022/01/21 12:21:31;;;;;;;10.55;1.77;;;;;;;-141.50;100.00;63355.56;4997016;28;20049;-83
2022/01/21 12:23:59;;;;;;;11.93;2.22;;;;;;;-141.50;100.00;63355.56;5016638;28;20061;-81